Time;durP1;ratioP1;P1;durP2;ratioP2;P2;SDS_P1;SDS_P2;PMS_P1;PMS_P2;Temp;Humidity;BMP_temperature;BMP_pressure;BME280_temperature;BME280_humidity;BME280_pressure;Samples;Min_cycle;Max_cycle;Signal;HPM_P1;HPM_P2
2022/04/13 00:02:23;;;;;;;4.95;1.98;;;;;;;18.26;40.85;99410.47;5094368;28;20079;-60
2022/04/13 00:04:50;;;;;;;3.10;2.15;;;;;;;18.24;40.96;99410.59;5094455;28;20094;-59
2022/04/13 00:07:16;;;;;;;2.92;2.10;;;;;;;18.21;41.01;99403.75;5094496;28;20052;-61
2022/04/13 00:09:43;;;;;;;4.30;1.92;;;;;;;18.20;41.08;99406.56;5094110;28;20044;-60
2022/04/13 00:12:10;;;;;;;2.67;1.92;;;;;;;18.18;41.49;99413.88;5094234;28;20060;-60
2022/04/13 00:14:36;;;;;;;5.78;2.20;;;;;;;18.16;40.90;99405.19;5094103;28;20048;-62
2022/04/13 00:17:03;;;;;;;4.07;2.17;;;;;;;18.13;41.64;99405.47;5093930;28;20156;-60
2022/04/13 00:19:29;;;;;;;4.43;2.20;;;;;;;18.08;41.33;99404.09;5094142;28;20044;-61
2022/04/13 00:21:56;;;;;;;3.85;2.13;;;;;;;18.05;41.39;99407.00;5094106;28;20080;-60
2022/04/13 00:24:23;;;;;;;4.40;2.10;;;;;;;18.01;41.69;99405.59;5094024;28;20444;-61
2022/04/13 00:26:50;;;;;;;3.95;1.85;;;;;;;17.97;41.36;99404.22;5093878;28;20102;-59
2022/04/13 00:29:17;;;;;;;3.35;1.98;;;;;;;17.94;41.76;99394.69;5093629;28;20052;-62
2022/04/13 00:31:43;;;;;;;6.47;2.20;;;;;;;17.91;42.33;99407.47;5093559;28;20110;-61
2022/04/13 00:34:10;;;;;;;3.67;1.98;;;;;;;17.86;41.72;99402.56;5093745;28;20052;-61
2022/04/13 00:36:36;;;;;;;3.40;1.98;;;;;;;17.82;41.94;99399.34;5093714;28;20044;-60
2022/04/13 00:39:03;;;;;;;5.07;2.17;;;;;;;17.77;41.84;99403.44;5092213;28;20078;-62
2022/04/13 00:41:30;;;;;;;3.08;2.08;;;;;;;17.70;42.09;99406.66;5093580;28;20562;-61
2022/04/13 00:44:02;;;;;;;3.42;2.08;;;;;;;17.63;41.60;99399.38;5092476;28;20076;-59
2022/04/13 00:46:29;;;;;;;4.22;2.17;;;;;;;17.60;42.28;99408.50;5093734;28;20056;-61
2022/04/13 00:48:56;;;;;;;4.13;2.30;;;;;;;17.57;42.35;99403.47;5093660;28;20048;-60
2022/04/13 00:51:23;;;;;;;5.28;2.20;;;;;;;17.54;42.70;99407.22;5091824;28;20051;-60
2022/04/13 00:53:51;;;;;;;6.15;2.22;;;;;;;17.51;42.71;99407.53;5092106;28;20048;-60
2022/04/13 00:56:23;;;;;;;2.78;2.10;;;;;;;17.49;42.57;99403.34;5092239;28;20043;-60
2022/04/13 00:58:53;;;;;;;5.20;2.50;;;;;;;17.47;42.48;99406.13;5093407;28;20503;-60
2022/04/13 01:01:22;;;;;;;3.47;2.42;;;;;;;17.44;42.68;99401.94;5091555;28;20089;-62
2022/04/13 01:03:52;;;;;;;4.40;2.35;;;;;;;17.40;42.47;99413.84;5092167;28;20519;-60
2022/04/13 01:06:20;;;;;;;3.85;1.98;;;;;;;17.41;42.88;99414.66;5091867;28;20450;-61
2022/04/13 01:08:50;;;;;;;6.00;2.40;;;;;;;17.37;42.70;99419.44;5093166;28;20097;-60
2022/04/13 01:11:17;;;;;;;3.17;2.33;;;;;;;17.37;42.90;99421.25;5092730;28;20561;-61
2022/04/13 01:13:44;;;;;;;4.18;2.20;;;;;;;17.38;43.05;99422.94;5091993;28;20044;-61
2022/04/13 01:16:11;;;;;;;5.25;2.17;;;;;;;17.37;43.18;99426.56;5092902;28;20098;-60
2022/04/13 01:18:38;;;;;;;2.15;1.92;;;;;;;17.36;43.08;99431.06;5091837;28;20087;-62
2022/04/13 01:21:10;;;;;;;4.72;2.30;;;;;;;17.34;42.92;99433.00;5092675;28;20148;-59
2022/04/13 01:23:36;;;;;;;4.57;2.28;;;;;;;17.31;43.12;99434.13;5092763;28;20485;-60
2022/04/13 01:26:03;;;;;;;5.05;2.60;;;;;;;17.28;43.07;99436.22;5093012;28;20412;-60
2022/04/13 01:28:29;;;;;;;6.72;2.40;;;;;;;17.25;43.17;99440.00;5092677;28;20463;-60
2022/04/13 01:30:56;;;;;;;3.10;2.25;;;;;;;17.24;43.43;99445.47;5091297;28;20058;-63
2022/04/13 01:33:25;;;;;;;3.85;2.50;;;;;;;17.20;43.48;99444.91;5092683;28;20085;-60
2022/04/13 01:35:52;;;;;;;3.88;2.10;;;;;;;17.18;43.49;99438.88;5092484;28;20041;-60
2022/04/13 01:38:18;;;;;;;3.45;2.15;;;;;;;17.15;43.83;99445.31;5092716;28;20261;-60
2022/04/13 01:40:46;;;;;;;5.05;2.40;;;;;;;17.12;43.63;99447.44;5092667;28;20077;-60
2022/04/13 01:43:13;;;;;;;6.38;2.40;;;;;;;17.09;43.63;99448.53;5092662;28;20048;-61
2022/04/13 01:45:39;;;;;;;5.53;2.30;;;;;;;17.08;43.80;99454.00;5091193;28;20078;-60
2022/04/13 01:48:09;;;;;;;7.57;2.47;;;;;;;17.04;43.67;99448.94;5092186;28;20055;-60
2022/04/13 01:50:36;;;;;;;4.80;2.60;;;;;;;17.03;43.66;99452.56;5091967;28;20070;-61
2022/04/13 01:53:02;;;;;;;4.18;2.20;;;;;;;17.01;43.82;99454.50;5092166;28;20072;-63
2022/04/13 01:55:29;;;;;;;3.35;2.53;;;;;;;17.00;43.80;99460.78;5092243;28;20052;-61
2022/04/13 01:57:56;;;;;;;4.70;2.42;;;;;;;17.00;43.85;99462.59;5092348;28;20052;-61
2022/04/13 02:00:22;;;;;;;6.63;2.63;;;;;;;16.99;44.08;99464.44;5091932;28;20106;-60
2022/04/13 02:02:49;;;;;;;2.88;2.33;;;;;;;16.98;43.94;99462.75;5092030;28;20052;-61
2022/04/13 02:05:15;;;;;;;6.40;2.53;;;;;;;16.98;43.79;99460.09;5091829;28;20056;-61
2022/04/13 02:07:42;;;;;;;9.65;2.95;;;;;;;16.96;43.87;99462.03;5092177;28;20059;-61
2022/04/13 02:10:09;;;;;;;7.07;3.00;;;;;;;16.96;43.74;99459.38;5091030;28;20047;-62
2022/04/13 02:12:37;;;;;;;4.60;2.60;;;;;;;16.99;43.85;99466.25;5092083;28;20052;-60
2022/04/13 02:15:05;;;;;;;7.45;2.60;;;;;;;17.00;43.86;99460.78;5092044;28;20611;-59
2022/04/13 02:17:31;;;;;;;5.03;2.80;;;;;;;17.03;44.01;99467.66;5090767;28;20105;-60
2022/04/13 02:19:58;;;;;;;4.43;2.20;;;;;;;17.06;43.99;99472.75;5091481;28;20399;-61
2022/04/13 02:22:25;;;;;;;6.05;2.72;;;;;;;17.09;44.02;99471.63;5091684;28;20040;-60
2022/04/13 02:25:11;;;;;;;6.18;2.70;;;;;;;17.13;44.05;99476.53;5091810;28;20059;-61
2022/04/13 02:27:37;;;;;;;3.72;2.33;;;;;;;17.12;43.92;99482.00;5090162;28;20519;-61
2022/04/13 02:30:05;;;;;;;4.95;2.35;;;;;;;17.10;43.80;99479.47;5091292;28;20070;-60
2022/04/13 02:32:32;;;;;;;6.55;2.72;;;;;;;17.08;43.82;99475.28;5091225;28;20052;-61
2022/04/13 02:34:58;;;;;;;4.30;2.53;;;;;;;17.03;44.14;99473.81;5090398;28;20101;-60
2022/04/13 02:37:25;;;;;;;4.72;2.40;;;;;;;16.99;43.92;99476.88;5091519;28;20055;-60
2022/04/13 02:39:51;;;;;;;3.10;2.47;;;;;;;16.97;43.96;99470.88;5090197;28;20056;-61
2022/04/13 02:42:18;;;;;;;3.72;2.20;;;;;;;16.92;44.26;99472.13;5091258;28;20085;-61
2022/04/13 02:44:44;;;;;;;4.38;2.38;;;;;;;16.89;44.22;99469.72;5091246;28;20040;-60
2022/04/13 02:47:11;;;;;;;5.70;2.40;;;;;;;16.87;44.45;99473.50;5091369;28;20484;-61
2022/04/13 02:49:37;;;;;;;6.82;3.00;;;;;;;16.83;44.58;99480.06;5091004;28;20052;-60
2022/04/13 02:52:05;;;;;;;3.42;2.50;;;;;;;16.80;44.59;99490.00;5091396;28;20051;-60
2022/04/13 02:54:31;;;;;;;5.45;2.28;;;;;;;16.80;44.57;99490.00;5091219;28;20077;-60
2022/04/13 02:56:58;;;;;;;5.25;2.45;;;;;;;16.82;44.84;99483.69;5091090;28;20044;-62
2022/04/13 02:59:25;;;;;;;4.13;2.35;;;;;;;16.83;44.66;99482.72;5090941;28;20048;-60
2022/04/13 03:01:53;;;;;;;3.45;2.42;;;;;;;16.86;44.86;99487.78;5091025;28;20048;-61
2022/04/13 03:04:26;;;;;;;7.18;2.50;;;;;;;16.89;44.75;99495.47;5089943;28;20044;-63
2022/04/13 03:06:54;;;;;;;5.82;2.58;;;;;;;16.92;44.90;99495.19;5090866;28;20063;-61
2022/04/13 03:09:20;;;;;;;7.55;2.58;;;;;;;16.97;44.89;99500.13;5090616;28;20498;-60
2022/04/13 03:11:47;;;;;;;5.18;2.45;;;;;;;17.02;44.63;99503.22;5090728;28;20507;-60
2022/04/13 03:14:13;;;;;;;6.70;2.88;;;;;;;17.06;44.83;99492.22;5091283;28;20501;-60
2022/04/13 03:16:40;;;;;;;5.68;2.60;;;;;;;17.11;44.79;99494.44;5090921;28;20052;-59
2022/04/13 03:19:07;;;;;;;10.05;2.88;;;;;;;17.17;44.78;99496.56;5089461;28;20114;-61
2022/04/13 03:21:33;;;;;;;7.30;2.50;;;;;;;17.22;44.60;99487.31;5090455;28;20405;-61
2022/04/13 03:24:00;;;;;;;7.93;3.05;;;;;;;17.25;44.35;99492.38;5090144;28;20059;-61
2022/04/13 03:26:26;;;;;;;5.13;2.25;;;;;;;17.27;44.26;99491.25;5089514;28;20086;-62
2022/04/13 03:28:53;;;;;;;6.53;2.42;;;;;;;17.30;44.37;99496.28;5090940;28;20051;-60
2022/04/13 03:31:20;;;;;;;6.30;2.60;;;;;;;17.31;44.15;99492.66;5090630;28;20063;-61
2022/04/13 03:33:46;;;;;;;7.60;2.95;;;;;;;17.32;44.31;99502.31;5090630;28;20052;-61
2022/04/13 03:36:13;;;;;;;6.50;2.67;;;;;;;17.32;44.39;99502.31;5090492;28;20117;-61
2022/04/13 03:38:39;;;;;;;8.27;2.63;;;;;;;17.32;44.27;99504.97;5090384;28;20063;-62
2022/04/13 03:41:06;;;;;;;12.52;2.85;;;;;;;17.34;44.33;99507.50;5090399;28;20059;-61
2022/04/13 03:43:32;;;;;;;7.43;2.65;;;;;;;17.35;44.31;99509.19;5090596;28;20052;-60
2022/04/13 03:45:59;;;;;;;8.18;2.90;;;;;;;17.34;44.25;99507.50;5090329;28;20492;-61
2022/04/13 03:48:32;;;;;;;11.07;2.50;;;;;;;17.32;44.14;99506.81;5090414;28;20531;-61
2022/04/13 03:51:00;;;;;;;5.10;2.90;;;;;;;17.28;44.07;99505.41;5090237;28;20083;-60
2022/04/13 03:53:27;;;;;;;8.02;2.90;;;;;;;17.22;44.20;99508.59;5090190;28;20458;-61
2022/04/13 03:55:54;;;;;;;11.73;3.33;;;;;;;17.13;44.32;99500.47;5090188;28;20059;-62
2022/04/13 03:58:20;;;;;;;6.57;2.63;;;;;;;17.06;44.43;99510.81;5089181;28;20109;-60
2022/04/13 04:00:47;;;;;;;6.55;2.70;;;;;;;17.00;44.51;99510.47;5089978;28;20052;-59
2022/04/13 04:03:14;;;;;;;4.07;2.20;;;;;;;16.92;44.62;99508.50;5090150;28;20515;-61
2022/04/13 04:05:41;;;;;;;7.63;2.90;;;;;;;16.86;44.49;99511.69;5090169;28;20455;-60
2022/04/13 04:08:07;;;;;;;8.23;3.25;;;;;;;16.80;44.80;99505.09;5090532;28;20056;-63
2022/04/13 04:10:34;;;;;;;7.85;3.28;;;;;;;16.76;44.93;99512.50;5089804;28;20056;-61
2022/04/13 04:13:01;;;;;;;12.38;2.88;;;;;;;16.72;44.83;99507.59;5090151;28;20089;-60
2022/04/13 04:15:28;;;;;;;7.82;2.95;;;;;;;16.67;44.88;99510.63;5090288;28;20060;-60
2022/04/13 04:17:55;;;;;;;5.57;3.10;;;;;;;16.64;44.99;99510.91;5090043;28;20473;-60
2022/04/13 04:20:21;;;;;;;5.55;2.97;;;;;;;16.61;45.05;99511.16;5089925;28;20048;-60
2022/04/13 04:22:48;;;;;;;4.90;3.03;;;;;;;16.57;45.30;99515.06;5090192;28;20044;-61
2022/04/13 04:25:14;;;;;;;4.68;2.70;;;;;;;16.55;45.25;99515.19;5090294;28;20051;-60
2022/04/13 04:27:41;;;;;;;6.63;3.55;;;;;;;16.53;45.29;99520.63;5090112;28;20097;-60
2022/04/13 04:30:08;;;;;;;7.85;3.28;;;;;;;16.51;45.38;99519.94;5090157;28;20060;-60
2022/04/13 04:32:34;;;;;;;10.52;3.80;;;;;;;16.50;45.46;99525.38;5089890;28;20469;-60
2022/04/13 04:35:01;;;;;;;8.65;3.92;;;;;;;16.46;45.48;99532.78;5092912;28;20044;-59
2022/04/13 04:37:27;;;;;;;8.82;3.30;;;;;;;16.41;45.60;99530.50;5093639;28;20748;-60
2022/04/13 04:39:54;;;;;;;4.40;3.20;;;;;;;16.37;45.54;99530.91;5092039;28;20468;-62
2022/04/13 04:42:21;;;;;;;6.40;3.40;;;;;;;16.32;45.51;99533.94;5093778;28;20097;-60
2022/04/13 04:44:47;;;;;;;5.35;3.10;;;;;;;16.28;45.58;99543.16;5093822;28;20048;-60
2022/04/13 04:47:14;;;;;;;8.00;3.25;;;;;;;16.24;45.70;99547.03;5093587;28;20048;-61
2022/04/13 04:49:40;;;;;;;5.00;2.85;;;;;;;16.22;45.84;99554.31;5093437;28;20469;-61
2022/04/13 04:52:07;;;;;;;4.47;2.97;;;;;;;16.19;46.11;99555.41;5093325;28;20048;-60
2022/04/13 04:54:33;;;;;;;5.05;3.17;;;;;;;16.21;46.14;99558.75;5093442;28;20069;-60
2022/04/13 04:57:00;;;;;;;6.15;2.80;;;;;;;16.25;46.17;99562.84;5093576;28;20052;-59
2022/04/13 04:59:26;;;;;;;5.13;3.17;;;;;;;16.29;45.93;99560.75;5093155;28;20117;-62
2022/04/13 05:01:53;;;;;;;5.03;3.38;;;;;;;16.33;46.03;99554.22;5093172;28;20063;-60
2022/04/13 05:04:20;;;;;;;7.32;3.38;;;;;;;16.37;45.94;99557.47;5093271;28;20138;-60
2022/04/13 05:06:46;;;;;;;6.07;3.28;;;;;;;16.42;45.91;99560.59;5093189;28;20056;-60
2022/04/13 05:09:17;;;;;;;7.05;3.08;;;;;;;16.47;45.83;99562.81;5093289;28;20557;-61
2022/04/13 05:11:44;;;;;;;5.32;3.42;;;;;;;16.50;45.92;99574.06;5093310;28;20056;-60
2022/04/13 05:14:11;;;;;;;6.30;3.75;;;;;;;16.52;45.81;99574.75;5091829;28;20610;-62
2022/04/13 05:16:37;;;;;;;6.28;3.15;;;;;;;16.54;45.77;99579.94;5092736;28;20041;-61
2022/04/13 05:19:04;;;;;;;7.35;3.50;;;;;;;16.56;45.75;99582.47;5092780;28;20044;-61
2022/04/13 05:21:31;;;;;;;5.72;3.40;;;;;;;16.56;45.56;99579.81;5093061;28;20488;-60
2022/04/13 05:23:57;;;;;;;6.63;3.45;;;;;;;16.57;45.72;99585.00;5092983;28;20138;-60
2022/04/13 05:26:24;;;;;;;12.85;3.60;;;;;;;16.57;45.68;99586.81;5091521;28;20048;-59
2022/04/13 05:28:50;;;;;;;6.88;3.60;;;;;;;16.59;45.74;99587.53;5092772;28;20040;-61
2022/04/13 05:31:17;;;;;;;5.70;3.10;;;;;;;16.59;45.63;99587.53;5092578;28;20163;-61
2022/04/13 05:33:44;;;;;;;7.10;3.55;;;;;;;16.60;45.71;99594.53;5092776;28;20048;-61
2022/04/13 05:36:10;;;;;;;5.55;3.45;;;;;;;16.61;45.63;99596.19;5093327;28;20048;-61
2022/04/13 05:38:39;;;;;;;5.30;3.38;;;;;;;16.61;45.78;99591.75;5092050;28;20055;-60
2022/04/13 05:41:06;;;;;;;10.45;3.90;;;;;;;16.63;45.62;99600.41;5092509;28;20052;-62
2022/04/13 05:43:34;;;;;;;5.18;3.60;;;;;;;16.66;45.70;99601.97;5091467;28;20048;-61
2022/04/13 05:46:02;;;;;;;7.43;3.55;;;;;;;16.67;45.80;99601.84;5091638;28;20060;-61
2022/04/13 05:48:29;;;;;;;5.95;3.65;;;;;;;16.70;45.71;99603.38;5092391;28;20052;-62
2022/04/13 05:50:55;;;;;;;7.60;3.72;;;;;;;16.71;45.70;99607.72;5092593;28;20070;-61
2022/04/13 05:53:28;;;;;;;5.32;3.75;;;;;;;16.71;45.74;99613.03;5092497;28;20056;-62
2022/04/13 05:55:57;;;;;;;6.10;3.40;;;;;;;16.72;45.75;99612.09;5091021;28;20047;-61
2022/04/13 05:58:28;;;;;;;6.65;3.35;;;;;;;16.69;45.74;99620.31;5090981;28;20101;-61
2022/04/13 06:00:55;;;;;;;9.18;3.67;;;;;;;16.71;46.03;99612.22;5090723;28;20150;-61
2022/04/13 06:03:23;;;;;;;6.07;3.72;;;;;;;16.70;46.37;99610.53;5092532;28;20561;-60
2022/04/13 06:06:07;;;;;;;6.35;3.50;;;;;;;16.71;46.37;99620.19;5092259;28;20052;-61
2022/04/13 06:08:34;;;;;;;7.68;3.85;;;;;;;16.70;46.35;99614.03;5092132;28;20671;-60
2022/04/13 06:11:00;;;;;;;9.30;3.97;;;;;;;16.70;46.31;99621.16;5091813;28;20048;-62
2022/04/13 06:13:27;;;;;;;6.43;3.25;;;;;;;16.71;46.77;99620.19;5092374;28;20390;-60
2022/04/13 06:15:54;;;;;;;9.95;3.55;;;;;;;16.71;47.08;99625.50;5092170;28;20113;-60
2022/04/13 06:18:20;;;;;;;15.35;3.85;;;;;;;16.73;47.04;99627.06;5091895;28;20056;-62
2022/04/13 06:20:47;;;;;;;9.45;3.85;;;;;;;16.73;47.35;99637.69;5091567;28;20408;-61
2022/04/13 06:23:13;;;;;;;7.40;3.85;;;;;;;16.74;47.01;99634.03;5091781;28;20477;-61
2022/04/13 06:25:40;;;;;;;4.65;3.55;;;;;;;16.76;47.26;99637.44;5091735;28;20461;-60
2022/04/13 06:28:06;;;;;;;9.13;4.03;;;;;;;16.76;47.16;99640.09;5091805;28;20049;-62
2022/04/13 06:30:33;;;;;;;6.78;3.80;;;;;;;16.79;47.23;99645.13;5091450;28;20097;-62
2022/04/13 06:33:00;;;;;;;8.23;4.00;;;;;;;16.81;47.65;99639.69;5091906;28;20085;-61
2022/04/13 06:35:27;;;;;;;9.10;4.32;;;;;;;16.84;47.56;99643.88;5091634;28;20134;-61
2022/04/13 06:37:54;;;;;;;8.35;4.07;;;;;;;16.84;47.83;99650.06;5089925;28;20040;-61
2022/04/13 06:40:20;;;;;;;12.52;4.22;;;;;;;16.85;47.76;99641.09;5089148;28;20051;-61
2022/04/13 06:42:48;;;;;;;47.35;6.45;;;;;;;16.88;47.76;99645.31;5090829;28;20056;-61
2022/04/13 06:45:15;;;;;;;11.43;4.45;;;;;;;16.90;47.80;99646.03;5089304;28;20044;-62
2022/04/13 06:47:42;;;;;;;14.13;4.57;;;;;;;16.92;48.02;99647.59;5089301;28;20055;-61
2022/04/13 06:50:10;;;;;;;7.50;4.53;;;;;;;16.94;48.15;99650.13;5088015;28;20051;-62
2022/04/13 06:52:39;;;;;;;11.95;4.15;;;;;;;17.00;48.23;99654.03;5088511;28;20105;-63
2022/04/13 06:55:09;;;;;;;6.38;4.03;;;;;;;17.02;48.17;99652.13;5091383;28;20074;-61
2022/04/13 06:57:37;;;;;;;8.20;4.28;;;;;;;17.09;48.53;99660.44;5089951;28;20056;-62
2022/04/13 07:00:09;;;;;;;10.80;4.22;;;;;;;17.13;48.49;99667.19;5090622;28;20499;-60
2022/04/13 07:02:36;;;;;;;9.05;4.38;;;;;;;17.19;48.44;99667.47;5090921;28;20118;-62
2022/04/13 07:05:26;;;;;;;13.20;4.75;;;;;;;17.26;48.58;99669.59;5089664;28;20105;-61
2022/04/13 07:07:55;;;;;;;7.32;4.45;;;;;;;17.31;48.56;99673.56;5089444;28;20637;-61
2022/04/13 07:10:23;;;;;;;10.55;5.00;;;;;;;17.38;48.57;99673.03;5089608;28;20079;-61
2022/04/13 07:12:49;;;;;;;18.75;5.25;;;;;;;17.43;48.60;99682.28;5089773;28;20059;-63
2022/04/13 07:15:17;;;;;;;7.97;4.95;;;;;;;17.49;48.51;99686.22;5090597;28;20550;-60
2022/04/13 07:17:44;;;;;;;10.48;4.97;;;;;;;17.55;48.66;99685.69;5090720;28;20121;-62
2022/04/13 07:20:12;;;;;;;10.80;4.85;;;;;;;17.59;48.69;99691.59;5089067;28;20052;-60
2022/04/13 07:22:55;;;;;;;12.90;5.57;;;;;;;17.62;48.31;99685.16;5089267;28;20047;-61
2022/04/13 07:25:22;;;;;;;11.07;5.60;;;;;;;17.70;48.21;99698.63;5089418;28;20407;-62
2022/04/13 07:27:49;;;;;;;11.10;4.88;;;;;;;17.73;48.62;99698.38;5089198;28;20044;-61
2022/04/13 07:30:16;;;;;;;9.00;5.35;;;;;;;17.77;48.43;99702.44;5090156;28;20044;-63
2022/04/13 07:32:47;;;;;;;12.10;5.30;;;;;;;17.80;48.71;99701.31;5090755;28;20055;-67
2022/04/13 07:35:14;;;;;;;11.40;6.25;;;;;;;17.87;48.56;99704.28;5090652;28;20056;-65
2022/04/13 07:37:41;;;;;;;9.82;5.78;;;;;;;17.91;48.58;99711.03;5089383;28;20048;-61
2022/04/13 07:40:11;;;;;;;10.50;6.57;;;;;;;17.95;48.69;99707.09;5090492;28;20044;-61
2022/04/13 07:42:38;;;;;;;13.18;6.43;;;;;;;18.02;48.76;99713.56;5090697;28;20492;-61
2022/04/13 07:45:06;;;;;;;11.80;6.07;;;;;;;18.07;48.81;99719.34;5090396;28;20055;-63
2022/04/13 07:47:33;;;;;;;13.45;6.22;;;;;;;18.14;49.00;99722.31;5089283;28;20059;-61
2022/04/13 07:50:00;;;;;;;12.02;6.72;;;;;;;18.22;48.96;99719.81;5090458;28;20117;-61
2022/04/13 07:52:26;;;;;;;17.27;7.15;;;;;;;18.30;49.17;99720.91;5090728;28;20044;-63
2022/04/13 07:54:53;;;;;;;12.93;6.63;;;;;;;18.39;49.50;99720.09;5090639;28;20056;-61
2022/04/13 07:57:19;;;;;;;13.20;6.82;;;;;;;18.49;49.46;99720.94;5090400;28;20052;-61
2022/04/13 07:59:46;;;;;;;10.95;7.07;;;;;;;18.60;49.08;99722.63;5090712;28;20109;-62
2022/04/13 08:02:13;;;;;;;13.18;6.85;;;;;;;18.70;49.01;99727.09;5090229;28;20385;-63
2022/04/13 08:04:41;;;;;;;14.98;7.57;;;;;;;18.82;49.03;99725.13;5090626;28;20098;-62
2022/04/13 08:07:07;;;;;;;14.02;7.50;;;;;;;18.94;48.59;99725.81;5089282;28;20135;-61
2022/04/13 08:09:35;;;;;;;10.07;7.35;;;;;;;19.05;48.98;99727.47;5092485;28;20079;-62
2022/04/13 08:12:01;;;;;;;13.57;7.13;;;;;;;19.18;48.72;99735.22;5094120;28;20060;-61
2022/04/13 08:14:28;;;;;;;11.95;7.00;;;;;;;19.29;48.39;99737.72;5094384;28;20052;-61
2022/04/13 08:16:55;;;;;;;14.23;7.65;;;;;;;19.41;48.67;99741.03;5094133;28;20070;-61
2022/04/13 08:19:23;;;;;;;11.77;6.68;;;;;;;19.55;48.78;99745.06;5092622;28;20060;-63
2022/04/13 08:21:49;;;;;;;11.75;6.50;;;;;;;19.65;48.26;99740.53;5094135;28;20082;-61
2022/04/13 08:24:18;;;;;;;12.23;6.38;;;;;;;19.77;48.43;99745.66;5094032;28;20458;-62
2022/04/13 08:26:44;;;;;;;10.07;6.32;;;;;;;19.89;48.59;99759.69;5093777;28;20040;-61
2022/04/13 08:29:11;;;;;;;12.07;6.20;;;;;;;20.00;48.21;99748.81;5093769;28;20520;-64
2022/04/13 08:31:38;;;;;;;12.30;5.90;;;;;;;20.11;48.35;99747.75;5094022;28;20051;-62
2022/04/13 08:34:04;;;;;;;13.38;5.85;;;;;;;20.22;48.38;99754.72;5093917;28;20044;-61
2022/04/13 08:36:31;;;;;;;15.73;6.55;;;;;;;20.33;48.68;99756.34;5094055;28;20466;-61
2022/04/13 08:38:57;;;;;;;14.77;6.07;;;;;;;20.47;48.40;99756.81;5093634;28;20056;-63
2022/04/13 08:41:36;;;;;;;13.90;6.47;;;;;;;20.57;47.63;99755.75;5093628;28;20051;-62
2022/04/13 08:44:11;;;;;;;9.38;5.70;;;;;;;20.69;47.42;99752.84;5093828;28;20094;-62
2022/04/13 08:46:40;;;;;;;13.52;6.00;;;;;;;20.82;48.08;99755.16;5092375;28;20055;-62
2022/04/13 08:49:09;;;;;;;12.40;6.50;;;;;;;20.92;47.89;99755.91;5093279;28;20557;-64
2022/04/13 08:52:02;;;;;;;8.48;5.72;;;;;;;21.04;47.38;99758.34;5094032;28;20447;-62
2022/04/13 08:54:30;;;;;;;;;;;;;;;21.13;47.10;99757.41;5093909;28;20561;-62
2022/04/13 08:56:57;;;;;;;8.05;5.35;;;;;;;21.29;47.50;99766.53;5093457;28;19920;-62
2022/04/13 09:00:08;;;;;;;11.00;5.63;;;;;;;21.35;47.34;99764.06;5093382;28;20475;-62
2022/04/13 09:03:25;;;;;;;8.35;4.97;;;;;;;21.44;46.93;99761.44;5093437;28;20450;-62
2022/04/13 09:05:55;;;;;;;11.57;5.88;;;;;;;21.56;46.94;99776.22;5080770;28;20112;-64
2022/04/13 09:08:23;;;;;;;13.90;6.80;;;;;;;21.63;47.13;99775.63;5092069;28;20512;-62
2022/04/13 09:10:52;;;;;;;14.80;6.82;;;;;;;21.67;46.97;99777.78;5092952;28;20056;-61
2022/04/13 09:13:21;;;;;;;13.27;7.07;;;;;;;21.70;46.42;99780.16;5092118;28;20085;-62
2022/04/13 09:15:48;;;;;;;10.55;6.53;;;;;;;21.75;46.14;99785.06;5093199;28;20048;-62
2022/04/13 09:18:15;;;;;;;13.15;6.13;;;;;;;21.77;46.42;99787.59;5093113;28;20055;-62
2022/04/13 09:20:42;;;;;;;13.75;5.88;;;;;;;21.80;46.52;99795.31;5091196;28;20478;-62
2022/04/13 09:23:09;;;;;;;11.77;6.72;;;;;;;21.81;46.08;99796.97;5092978;28;20063;-61
2022/04/13 09:25:39;;;;;;;11.27;6.53;;;;;;;21.84;46.27;99791.31;5091591;28;20044;-62
2022/04/13 09:28:06;;;;;;;12.93;6.32;;;;;;;21.87;46.16;99791.00;5092886;28;20052;-62
2022/04/13 09:30:34;;;;;;;12.52;6.63;;;;;;;21.92;46.42;99793.19;5091456;28;20044;-62
2022/04/13 09:33:02;;;;;;;12.48;6.22;;;;;;;21.97;46.32;99791.69;5092819;28;20648;-61
2022/04/13 09:35:33;;;;;;;12.23;6.22;;;;;;;22.02;45.20;99788.53;5092890;28;20058;-62
2022/04/13 09:38:03;;;;;;;12.88;6.95;;;;;;;22.11;46.34;99792.06;5092799;28;20048;-62
2022/04/13 09:40:34;;;;;;;13.07;6.28;;;;;;;22.17;45.69;99791.44;5091301;28;20048;-62
2022/04/13 09:43:09;;;;;;;14.75;6.82;;;;;;;22.25;45.32;99787.94;5092069;28;20738;-62
2022/04/13 09:45:49;;;;;;;14.27;7.18;;;;;;;22.35;45.85;99793.16;5091093;28;20484;-62
2022/04/13 09:48:22;;;;;;;12.23;6.57;;;;;;;22.46;45.96;99789.34;5092566;28;20067;-61
2022/04/13 09:50:50;;;;;;;13.57;7.13;;;;;;;22.54;45.40;99789.31;5091139;28;20044;-62
2022/04/13 09:53:19;;;;;;;14.50;6.90;;;;;;;22.60;44.90;99787.84;5091215;28;20056;-63
2022/04/13 09:55:54;;;;;;;12.95;5.95;;;;;;;22.63;44.58;99791.06;5091126;28;20044;-62
2022/04/13 09:58:22;;;;;;;16.75;7.13;;;;;;;22.69;44.93;99794.09;5090751;28;20048;-62
2022/04/13 10:00:55;;;;;;;11.07;6.35;;;;;;;22.70;44.47;99793.94;5091014;28;20052;-63
2022/04/13 10:03:23;;;;;;;13.50;6.93;;;;;;;22.72;44.99;99791.09;5092367;28;20056;-62
2022/04/13 10:05:55;;;;;;;12.95;6.57;;;;;;;22.69;44.90;99789.53;5090894;28;20073;-62
2022/04/13 10:08:24;;;;;;;9.48;6.18;;;;;;;22.71;44.52;99792.06;5090946;28;20060;-62
2022/04/13 10:10:56;;;;;;;9.35;5.78;;;;;;;22.73;45.86;99790.06;5091671;28;20048;-61
2022/04/13 10:13:46;;;;;;;15.13;5.55;;;;;;;22.75;45.60;99791.59;5090947;28;20057;-63
2022/04/13 10:16:14;;;;;;;10.25;5.30;;;;;;;22.90;46.17;99783.69;5090757;28;20408;-61
2022/04/13 10:19:01;;;;;;;8.82;5.07;;;;;;;23.00;45.97;99780.00;5091826;28;20058;-62
2022/04/13 10:21:49;;;;;;;10.93;6.25;;;;;;;23.15;46.19;99772.97;5091481;28;20501;-64
2022/04/13 10:24:18;;;;;;;8.77;5.50;;;;;;;23.32;45.54;99783.66;5091978;28;20052;-62
2022/04/13 10:27:04;;;;;;;9.80;5.57;;;;;;;23.43;44.74;99788.72;5091618;28;20048;-62
2022/04/13 10:29:33;;;;;;;12.73;5.40;;;;;;;23.61;45.34;99786.81;5091387;28;20044;-62
2022/04/13 10:32:15;;;;;;;11.50;5.57;;;;;;;23.69;44.61;99789.47;5091177;28;20071;-62
2022/04/13 10:34:44;;;;;;;34.22;6.57;;;;;;;23.87;44.89;99785.72;5091639;28;20044;-62
2022/04/13 10:37:12;;;;;;;9.77;5.13;;;;;;;23.98;45.06;99793.41;5090355;28;20125;-62
2022/04/13 10:39:41;;;;;;;9.10;5.13;;;;;;;24.12;44.89;99793.69;5090246;28;20052;-62
2022/04/13 10:42:10;;;;;;;10.82;5.35;;;;;;;24.26;45.62;99794.81;5090166;28;20048;-62
2022/04/13 10:44:38;;;;;;;12.65;5.03;;;;;;;24.41;45.08;99797.59;5091636;28;20044;-62
2022/04/13 10:47:10;;;;;;;11.15;4.97;;;;;;;24.54;44.00;99797.84;5091349;28;20109;-62
2022/04/13 10:49:58;;;;;;;9.65;5.40;;;;;;;24.68;43.65;99803.47;5091151;28;20056;-63
2022/04/13 10:52:33;;;;;;;12.43;4.80;;;;;;;24.78;42.88;99797.84;5091023;28;20048;-62
2022/04/13 10:55:07;;;;;;;7.97;4.25;;;;;;;24.86;43.45;99792.44;5091612;28;20048;-62
2022/04/13 10:57:46;;;;;;;7.65;4.60;;;;;;;24.92;42.75;99804.31;5073678;28;20055;-61
2022/04/13 11:00:17;;;;;;;11.60;4.80;;;;;;;24.98;42.41;99803.59;5089741;28;20052;-63
2022/04/13 11:02:52;;;;;;;8.23;4.38;;;;;;;25.04;42.34;99808.25;5089633;28;20052;-62
2022/04/13 11:05:25;;;;;;;15.32;4.78;;;;;;;25.19;43.45;99804.78;5091217;28;20060;-62
2022/04/13 11:08:02;;;;;;;8.57;3.85;;;;;;;25.42;44.33;99802.00;5091176;28;20445;-62
2022/04/13 11:10:31;;;;;;;8.43;4.47;;;;;;;25.80;45.15;99814.63;5089527;28;20059;-62
2022/04/13 11:12:59;;;;;;;9.77;4.22;;;;;;;26.25;44.73;99808.31;5089806;28;20504;-62
2022/04/13 11:15:47;;;;;;;5.72;3.58;;;;;;;26.74;43.05;99803.25;5089491;28;20066;-62
2022/04/13 11:18:17;;;;;;;6.70;3.70;;;;;;;27.26;43.07;99805.78;5090698;28;20043;-62
2022/04/13 11:20:59;;;;;;;8.57;3.95;;;;;;;27.66;41.51;99811.47;5089243;28;20052;-62
2022/04/13 11:23:51;;;;;;;10.85;3.60;;;;;;;28.04;40.96;99817.50;5090768;28;20052;-63
2022/04/13 11:26:48;;;;;;;4.82;2.90;;;;;;;28.44;40.25;99812.25;5089774;28;20039;-63
2022/04/13 11:29:15;;;;;;;8.23;3.63;;;;;;;28.90;40.68;99820.69;5090637;28;20138;-62
2022/04/13 11:32:00;;;;;;;6.68;3.20;;;;;;;29.27;39.52;99812.97;5089368;28;20059;-63
2022/04/13 11:34:38;;;;;;;5.93;3.08;;;;;;;29.67;38.04;99819.38;5090891;28;20048;-62
2022/04/13 11:37:09;;;;;;;6.40;2.75;;;;;;;29.99;37.11;99821.38;5089418;28;20381;-63
2022/04/13 11:40:10;;;;;;;4.90;2.58;;;;;;;30.26;37.83;99822.13;5089237;28;20044;-62
2022/04/13 11:42:39;;;;;;;3.88;2.20;;;;;;;30.62;36.85;99821.72;5090237;28;20070;-62